Latest Weather Observations for Woomera

IDS60801

Issued at 4:31 pm CST Wednesday 29 July 2015 (issued every 30 minutes, with the page automatically refreshed every 10 minutes)

About weather observations | Map of weather stations | Latest weather observations for SA | Other Formats
Station Details ID: 016001 Name: WOOMERA AERODROME Lat: -31.16 Lon: 136.81 Height: 166.6 m
Data from the previous 72 hours. | See also: Recent months at Woomera
Date/Time
CST
Temp
°C
App
Temp
°C
Dew
Point
Rel
Hum
%
Delta-T
°C
Wind Press
QNH
hPa
Press
MSL
hPa
Rain
since 9 am
mm
Dir
 
Spd
km/h
Gust
km/h
Spd
kts
Gust
kts
29/04:00pm 14.9 7.8 -4.8 25 7.5 N 24 33 13 18 1026.8 - 0.0
29/03:30pm 14.6 7.1 -4.5 26 7.3 N 26 35 14 19 1026.8 - 0.0
29/03:00pm 14.5 7.5 -3.4 29 7.0 N 24 32 13 17 1027.2 1027.3 0.0
29/02:30pm 14.2 8.0 -3.1 30 6.8 N 20 24 11 13 1027.1 - 0.0
29/02:00pm 13.5 6.6 -2.8 32 6.4 N 24 32 13 17 1027.4 - 0.0
29/01:30pm 12.6 4.1 -2.1 36 5.8 N 33 39 18 21 1027.2 - 0.0
29/01:00pm 12.4 4.1 -1.7 37 5.6 N 32 41 17 22 1028.2 - 0.0
29/12:30pm 12.4 3.5 -1.7 37 5.6 N 35 46 19 25 1029.3 - 0.0
29/12:00pm 12.0 1.4 -1.6 39 5.4 N 44 54 24 29 1028.7 1028.9 0.0
29/11:30am 11.7 2.1 -1.4 40 5.2 N 39 52 21 28 1030.0 - 0.0
29/11:00am 11.2 3.0 -1.2 42 5.0 N 32 39 17 21 1030.6 - 0.0
29/10:30am 10.4 3.7 -1.0 45 4.5 N 24 28 13 15 1031.9 - 0.0
29/10:00am 9.7 2.6 -1.0 47 4.2 N 26 32 14 17 1031.4 - 0.0
29/09:30am 8.8 1.7 -1.0 50 3.8 NNE 26 32 14 17 1031.4 - 0.0
29/09:00am 7.9 2.0 -1.0 53 3.4 NNE 20 24 11 13 1032.1 1032.2 0.0
29/08:30am 6.6 2.1 -0.4 61 2.7 NNE 13 15 7 8 1032.5 - 0.0
29/08:00am 6.1 1.2 -0.8 61 2.6 NNE 15 17 8 9 1032.0 - 0.0
29/07:30am 5.8 0.9 -0.8 62 2.5 NNE 15 17 8 9 1031.6 - 0.0
29/07:00am 6.4 0.7 -1.0 59 2.8 N 19 20 10 11 1031.3 - 0.0
29/06:30am 6.2 0.3 -1.0 60 2.7 NNE 20 24 11 13 1030.7 - 0.0
29/06:00am 7.0 0.3 -1.2 56 3.1 N 24 26 13 14 1030.8 1030.9 0.0
29/05:30am 5.6 -0.3 -1.1 62 2.5 NNE 20 26 11 14 1030.3 - 0.0
29/05:00am 5.4 0.0 -1.0 63 2.4 NNE 17 20 9 11 1031.2 - 0.0
29/04:30am 5.5 0.5 -0.9 63 2.4 NNE 15 17 8 9 1031.4 - 0.0
29/04:00am 5.8 0.5 -0.8 62 2.5 NNE 17 20 9 11 1031.1 - 0.0
29/03:30am 5.6 0.2 -1.1 62 2.5 NE 17 20 9 11 1030.8 - 0.0
29/03:00am 6.2 0.8 -1.3 58 2.8 NE 17 22 9 12 1031.2 1031.3 0.0
29/02:30am 6.0 0.0 -1.6 58 2.8 NE 20 22 11 12 1030.6 - 0.0
29/02:00am 5.6 -0.2 -1.8 59 2.7 ENE 19 20 10 11 1031.3 - 0.0
29/01:30am 6.6 2.8 -1.1 58 2.9 ENE 9 11 5 6 1031.6 - 0.0
29/01:00am 6.2 2.0 -1.0 60 2.7 E 11 11 6 6 1031.4 - 0.0
29/12:30am 6.0 1.4 -1.2 60 2.7 E 13 15 7 8 1031.6 - 0.0
29/12:00am 6.5 2.3 -1.2 58 2.9 E 11 13 6 7 1032.1 1032.2 0.0
 
Date/Time
CST
Temp
°C
App
Temp
°C
Dew
Point
Rel
Hum
%
Delta-T
°C
Wind Press
QNH
hPa
Press
MSL
hPa
Rain
since 9 am
mm
Dir
 
Spd
km/h
Gust
km/h
Spd
kts
Gust
kts
28/11:30pm 6.7 2.1 -1.0 58 2.9 ENE 13 15 7 8 1032.2 - 0.0
28/11:00pm 7.8 3.6 -1.1 53 3.4 ENE 11 13 6 7 1032.8 - 0.0
28/10:30pm 8.0 3.8 -0.8 54 3.4 E 11 11 6 6 1033.0 - 0.0
28/10:00pm 8.0 3.8 -0.8 54 3.4 E 11 13 6 7 1033.1 - 0.0
28/09:30pm 8.6 4.0 -1.0 51 3.7 E 13 15 7 8 1033.2 - 0.0
28/09:00pm 8.9 4.2 -1.6 47 4.0 NE 13 15 7 8 1033.4 1033.6 0.0
28/08:30pm 9.2 4.1 -1.8 46 4.2 NE 15 15 8 8 1033.2 - 0.0
28/08:00pm 10.0 5.7 -1.6 44 4.5 NE 11 13 6 7 1033.5 - 0.0
28/07:30pm 10.2 5.5 -1.7 43 4.6 NE 13 15 7 8 1033.3 - 0.0
28/07:00pm 10.3 6.1 -1.2 44 4.5 ENE 11 13 6 7 1033.3 - 0.0
28/06:30pm 11.2 7.3 -1.2 42 5.0 ENE 9 13 5 7 1033.2 - 0.0
28/06:00pm 12.7 9.4 -1.2 38 5.6 N 6 9 3 5 1033.1 1033.3 0.0
28/05:30pm 13.7 10.2 -1.4 35 6.2 N 7 9 4 5 1033.3 - 0.0
28/05:00pm 14.5 11.0 -1.5 33 6.6 NNE 7 11 4 6 1033.1 - 0.0
28/04:30pm 15.0 11.5 -1.7 31 6.9 N 7 13 4 7 1033.1 - 0.0
28/04:00pm 15.8 12.5 -1.0 31 7.1 WNW 6 9 3 5 1032.8 - 0.0
28/03:30pm 15.7 12.4 -1.6 30 7.2 E 6 9 3 5 1033.0 - 0.0
28/03:00pm 15.1 11.8 -1.5 32 6.8 N 6 11 3 6 1033.4 1033.6 0.0
28/02:30pm 15.0 11.2 -1.0 33 6.7 NW 9 15 5 8 1033.4 - 0.0
28/02:00pm 14.4 10.6 -0.9 35 6.4 W 9 15 5 8 1033.7 - 0.0
28/01:00pm 14.4 9.9 -0.2 36 6.2 N 13 19 7 10 1034.6 - 0.0
28/12:30pm 14.0 8.7 -0.9 36 6.2 NNE 17 24 9 13 1035.1 - 0.0
28/12:00pm 13.5 7.6 -1.0 36 5.9 N 20 24 11 13 1035.7 1035.9 0.0
28/11:30am 13.2 7.3 -0.5 39 5.7 NNE 20 28 11 15 1036.3 - 0.0
28/11:00am 12.9 7.4 0.4 42 5.3 NE 19 24 10 13 1036.8 - 0.0
28/10:30am 11.3 6.2 0.9 48 4.4 ENE 17 22 9 12 1037.3 - 0.0
28/10:00am 10.2 4.6 0.9 52 3.9 ENE 20 24 11 13 1037.3 - 0.0
28/09:30am 8.7 3.8 1.9 62 2.8 E 17 20 9 11 1037.4 - 0.0
28/09:00am 7.0 2.5 2.4 72 1.9 ESE 15 17 8 9 1037.9 1038.1 0.0
28/08:30am 5.9 2.1 1.9 75 1.6 ESE 11 13 6 7 1037.9 - 0.0
28/08:00am 4.8 0.2 1.5 79 1.3 ESE 15 15 8 8 1037.8 - 0.0
28/07:30am 3.8 -0.5 0.9 81 1.1 SE 13 15 7 8 1037.6 - 0.0
28/07:00am 3.5 -0.8 0.9 83 1.0 SE 13 15 7 8 1037.1 - 0.0
28/06:30am 3.8 -0.9 0.9 81 1.1 SE 15 15 8 8 1036.8 - 0.0
28/06:00am 4.0 -0.7 0.6 78 1.3 SE 15 15 8 8 1036.2 1036.4 0.0
28/05:30am 3.8 -0.9 0.9 81 1.1 SE 15 17 8 9 1035.8 - 0.0
28/05:00am 4.2 -0.5 1.1 80 1.2 SE 15 17 8 9 1035.8 - 0.0
28/04:30am 4.4 -0.7 1.0 78 1.3 SE 17 19 9 10 1035.4 - 0.0
28/04:00am 4.5 0.3 1.4 80 1.2 SE 13 15 7 8 1035.5 - 0.0
28/03:30am 5.2 1.8 1.7 78 1.4 SE 9 11 5 6 1035.5 - 0.0
28/03:00am 6.1 2.7 1.6 73 1.8 ESE 9 11 5 6 1035.6 1035.8 0.0
28/02:30am 6.1 2.7 1.6 73 1.8 ESE 9 9 5 5 1035.8 - 0.0
28/02:00am 6.2 2.7 1.4 71 1.9 ESE 9 9 5 5 1036.0 - 0.0
28/01:30am 5.4 1.8 0.8 72 1.8 E 9 11 5 6 1035.8 - 0.0
28/01:00am 5.7 1.7 0.5 69 2.0 E 11 15 6 8 1035.7 - 0.0
28/12:30am 6.1 2.5 0.7 68 2.1 ESE 9 11 5 6 1035.9 - 0.0
28/12:00am 5.8 1.8 0.7 70 2.0 E 11 13 6 7 1035.7 1035.9 0.0
 
Date/Time
CST
Temp
°C
App
Temp
°C
Dew
Point
Rel
Hum
%
Delta-T
°C
Wind Press
QNH
hPa
Press
MSL
hPa
Rain
since 9 am
mm
Dir
 
Spd
km/h
Gust
km/h
Spd
kts
Gust
kts
27/11:30pm 6.5 2.9 0.6 66 2.3 E 9 11 5 6 1036.2 - 0.0
27/11:00pm 7.0 2.7 1.0 65 2.4 E 13 20 7 11 1036.2 - 0.0
27/10:30pm 8.2 2.7 0.7 59 3.0 E 19 24 10 13 1036.2 - 0.0
27/10:00pm 8.0 3.7 0.7 60 2.9 ESE 13 17 7 9 1036.3 - 0.0
27/09:30pm 7.9 3.2 1.2 62 2.7 ESE 15 20 8 11 1036.0 - 0.0
27/09:00pm 7.9 4.0 1.2 62 2.7 ESE 11 13 6 7 1036.1 1036.3 0.0
27/08:30pm 8.8 4.5 0.9 57 3.2 ESE 13 19 7 10 1035.8 - 0.0
27/08:00pm 8.9 3.4 0.4 55 3.4 SE 19 20 10 11 1035.9 - 0.0
27/07:30pm 8.8 4.8 0.6 56 3.3 S 11 13 6 7 1035.8 - 0.0
27/07:00pm 9.1 5.1 0.7 55 3.4 S 11 13 6 7 1035.2 - 0.0
27/06:30pm 9.7 5.8 0.9 54 3.6 S 11 13 6 7 1035.0 - 0.0
27/06:00pm 11.1 6.3 0.3 47 4.4 S 15 19 8 10 1035.0 1035.2 0.0
27/05:30pm 12.1 7.3 0.2 44 5.0 SSW 15 20 8 11 1034.7 - 0.0
27/05:00pm 12.7 7.1 0.1 42 5.3 S 19 24 10 13 1034.4 - 0.0
27/04:30pm 13.2 7.6 -0.1 40 5.6 S 19 24 10 13 1034.2 - 0.0
27/04:00pm 13.2 7.9 -0.4 39 5.6 S 17 28 9 15 1034.1 - 0.0
27/03:00pm 13.2 8.4 -0.1 40 5.5 S 15 20 8 11 1033.9 1034.1 0.0
27/02:30pm 13.3 9.0 1.1 43 5.2 S 13 26 7 14 1033.8 - 0.0
27/02:00pm 12.8 8.3 0.0 41 5.3 SSW 13 24 7 13 1033.7 - 0.0
27/01:30pm 12.8 7.9 -0.7 39 5.5 S 15 22 8 12 1034.1 - 0.0
27/01:00pm 12.5 8.1 0.2 43 5.1 S 13 20 7 11 1034.6 - 0.0
27/12:30pm 12.6 7.0 0.0 42 5.2 S 19 24 10 13 1035.2 - 0.0
27/12:00pm 12.2 7.3 -0.3 42 5.1 SSW 15 24 8 13 1035.7 1035.9 0.0
27/11:30am 12.4 7.6 0.0 42 5.2 S 15 22 8 12 1036.1 - 0.0
27/11:00am 11.3 7.4 0.9 48 4.4 S 11 19 6 10 1036.6 - 0.0
27/10:30am 11.3 6.6 0.9 48 4.4 SE 15 20 8 11 1036.8 - 0.0
27/10:00am 10.2 7.0 3.0 61 3.1 ESE 9 13 5 7 1036.8 - 0.0
27/09:30am 9.5 6.8 3.8 67 2.5 SSE 7 13 4 7 1036.6 - 0.0
27/09:00am 8.0 5.9 4.1 76 1.7 SSW 4 9 2 5 1036.2 1036.4 0.0
27/08:30am 5.6 2.9 3.7 87 0.8 SW 7 9 4 5 1035.8 - 0.0
27/08:00am 3.9 0.6 2.7 92 0.5 SW 9 9 5 5 1035.3 - 0.0
27/07:30am 3.9 -0.2 2.4 90 0.6 S 13 15 7 8 1034.8 - 0.0
27/07:00am 3.5 -0.6 2.2 91 0.5 S 13 15 7 8 1034.5 - 0.0
27/06:30am 3.8 -0.6 2.8 93 0.4 S 15 15 8 8 1034.1 - 0.0
27/06:00am 4.5 0.2 3.0 90 0.6 S 15 15 8 8 1033.7 1033.9 0.0
27/05:30am 4.4 0.1 3.2 92 0.5 S 15 17 8 9 1033.3 - 0.0
27/05:00am 4.6 0.3 3.4 92 0.5 S 15 17 8 9 1033.0 - 0.0
27/04:30am 4.9 1.1 3.7 92 0.5 S 13 15 7 8 1032.9 - 0.0
27/04:00am 5.1 1.3 3.7 91 0.6 S 13 17 7 9 1032.7 - 0.0
27/03:30am 5.4 1.2 4.0 91 0.6 S 15 17 8 9 1032.6 - 0.0
27/03:00am 5.5 1.8 4.3 92 0.5 S 13 17 7 9 1032.6 1032.7 0.0
27/02:30am 5.4 2.0 4.2 92 0.5 S 11 13 6 7 1032.4 - 0.0
27/02:00am 5.3 1.9 4.1 92 0.5 S 11 15 6 8 1032.2 - 0.0
27/01:30am 5.8 2.4 4.2 89 0.7 SSW 11 13 6 7 1032.1 - 0.0
27/01:00am 5.3 1.9 4.1 92 0.5 WSW 11 13 6 7 1032.0 - 0.0
27/12:30am 5.8 2.1 4.4 91 0.6 W 13 15 7 8 1031.8 - 0.0
27/12:00am 6.2 3.2 4.3 88 0.8 W 9 13 5 7 1031.5 1031.6 0.0
 
Date/Time
CST
Temp
°C
App
Temp
°C
Dew
Point
Rel
Hum
%
Delta-T
°C
Wind Press
QNH
hPa
Press
MSL
hPa
Rain
since 9 am
mm
Dir
 
Spd
km/h
Gust
km/h
Spd
kts
Gust
kts
26/11:30pm 7.0 3.7 4.5 84 1.1 W 11 13 6 7 1031.3 - 0.0
26/11:00pm 7.5 4.7 5.0 84 1.1 S 9 11 5 6 1031.1 - 0.0
26/10:30pm 7.6 4.7 4.4 80 1.4 SSW 9 11 5 6 1031.1 - 0.0
26/10:00pm 8.4 5.1 4.8 78 1.6 S 11 13 6 7 1031.0 - 0.0
26/09:30pm 9.6 5.7 5.2 74 2.0 S 15 19 8 10 1030.9 - 0.0
26/09:00pm 9.8 5.6 5.6 75 1.9 S 17 24 9 13 1030.6 1030.7 0.0
26/08:30pm 9.9 6.3 4.8 70 2.3 S 13 15 7 8 1030.2 - 0.0
26/08:00pm 10.2 5.7 4.4 67 2.6 S 17 20 9 11 1029.8 - 0.0
26/07:30pm 10.5 6.0 4.2 65 2.8 S 17 20 9 11 1029.4 - 0.0
26/07:00pm 10.8 6.2 3.5 60 3.2 S 17 20 9 11 1029.0 - 0.0
26/06:30pm 11.7 7.1 3.6 57 3.6 S 17 22 9 12 1028.6 - 0.0
26/06:00pm 12.4 6.5 3.7 55 3.9 S 24 30 13 16 1028.3 1028.5 0.0
26/05:30pm 13.2 7.8 1.3 44 5.1 SSW 19 26 10 14 1027.8 - 0.0
26/05:00pm 13.5 7.3 -0.2 39 5.7 SSW 22 30 12 16 1027.4 - 0.0

Other Formats:

Comma delimited format used in spreadsheet applications
http://www.bom.gov.au/fwo/IDS60801/IDS60801.94659.axf

JavaScript Object Notation format (JSON) in row-major order
http://www.bom.gov.au/fwo/IDS60801/IDS60801.94659.json